Time;durP1;ratioP1;P1;durP2;ratioP2;P2;SDS_P1;SDS_P2;PMS_P1;PMS_P2;Temp;Humidity;BMP_temperature;BMP_pressure;BME280_temperature;BME280_humidity;BME280_pressure;Samples;Min_cycle;Max_cycle;Signal;HPM_P1;HPM_P2
2024/01/26 00:01:59;;;;;;;45.65;21.02;;;;;;;8.51;100.00;101427.09;5026135;28;20414;-74
2024/01/26 00:04:29;;;;;;;46.17;21.52;;;;;;;8.55;100.00;101422.63;5017139;28;20057;-74
2024/01/26 00:07:01;;;;;;;48.80;22.00;;;;;;;8.56;100.00;101425.22;5014522;28;20041;-75
2024/01/26 00:09:30;;;;;;;48.47;21.70;;;;;;;8.54;100.00;101421.75;5025256;28;20422;-73
2024/01/26 00:11:58;;;;;;;51.67;22.67;;;;;;;8.41;100.00;101415.88;5022365;28;20726;-73
2024/01/26 00:14:26;;;;;;;49.03;20.88;;;;;;;8.44;100.00;101414.94;5026417;28;20041;-74
2024/01/26 00:17:04;;;;;;;42.22;21.45;;;;;;;8.50;100.00;101398.97;5029288;28;20109;-73
2024/01/26 00:19:32;;;;;;;43.17;21.75;;;;;;;8.55;100.00;101396.22;5045437;28;20081;-73
2024/01/26 00:22:00;;;;;;;43.85;21.48;;;;;;;8.55;100.00;101401.50;5028186;28;20048;-73
2024/01/26 00:24:32;;;;;;;44.85;21.30;;;;;;;8.51;100.00;101408.63;5033433;28;20052;-73
2024/01/26 00:27:00;;;;;;;47.50;21.95;;;;;;;8.42;100.00;101400.91;5036103;28;20065;-75
2024/01/26 00:29:32;;;;;;;;;;;;;;;8.47;100.00;101411.38;5051200;28;20076;-72
2024/01/26 00:32:01;;;;;;;47.88;20.98;;;;;;;8.47;100.00;101393.78;5042160;28;20415;-74
2024/01/26 00:34:29;;;;;;;41.15;21.10;;;;;;;8.56;100.00;101392.69;5047792;28;20045;-75
2024/01/26 00:37:01;;;;;;;40.47;20.40;;;;;;;8.61;100.00;101401.38;5048330;28;20049;-73
2024/01/26 00:39:30;;;;;;;43.75;20.65;;;;;;;8.53;100.00;101390.97;5031392;28;20056;-73
2024/01/26 00:42:02;;;;;;;45.70;21.80;;;;;;;8.47;100.00;101398.19;5009653;28;20056;-72
2024/01/26 00:44:31;;;;;;;45.38;22.60;;;;;;;8.41;100.00;101394.78;5047749;28;20051;-73
2024/01/26 00:47:01;;;;;;;43.03;22.33;;;;;;;8.37;100.00;101381.66;5046894;28;20084;-75
2024/01/26 00:49:31;;;;;;;41.47;21.30;;;;;;;8.40;100.00;101394.81;5027505;28;20037;-73
2024/01/26 00:52:15;;;;;;;46.00;21.80;;;;;;;8.39;100.00;101391.28;5028455;28;20081;-73
2024/01/26 00:54:45;;;;;;;46.77;21.80;;;;;;;8.40;100.00;101398.31;4965545;28;1307472;-72
2024/01/26 00:57:14;;;;;;;42.72;21.75;;;;;;;8.39;100.00;101390.41;5046335;28;20469;-74
2024/01/26 00:59:43;;;;;;;46.20;20.48;;;;;;;8.48;100.00;101394.66;5031877;28;20095;-73
2024/01/26 01:02:14;;;;;;;;;;;;;;;8.52;100.00;101385.72;5019842;28;20049;-72
2024/01/26 01:04:42;;;;;;;41.40;21.25;;;;;;;8.56;100.00;101380.34;5040111;28;20328;-72
2024/01/26 01:07:11;;;;;;;41.28;20.83;;;;;;;8.59;100.00;101385.56;5028255;28;20049;-74
2024/01/26 01:09:41;;;;;;;36.60;20.27;;;;;;;8.61;100.00;101383.78;5042498;28;20046;-73
2024/01/26 01:12:10;;;;;;;;;;;;;;;8.56;100.00;101382.13;5007861;28;20033;-73
2024/01/26 01:14:37;;;;;;;37.80;20.13;;;;;;;8.53;100.00;101388.34;5032528;28;19924;-74
2024/01/26 01:17:09;;;;;;;37.13;20.25;;;;;;;8.20;100.00;101328.34;5033089;28;20065;-73
2024/01/26 01:19:40;;;;;;;39.50;20.90;;;;;;;8.57;100.00;101386.50;5033140;28;20441;-72
2024/01/26 01:22:09;;;;;;;38.95;20.35;;;;;;;8.58;100.00;101386.47;5037098;28;20041;-74
2024/01/26 01:24:41;;;;;;;42.22;21.00;;;;;;;8.62;100.00;101382.00;5034387;28;20058;-74
2024/01/26 01:27:09;;;;;;;39.55;21.67;;;;;;;8.63;100.00;101387.25;5035605;28;20034;-74
2024/01/26 01:29:38;;;;;;;39.22;20.48;;;;;;;8.59;100.00;101372.38;5030819;28;20116;-73
2024/01/26 01:32:09;;;;;;;37.10;20.13;;;;;;;8.62;100.00;101382.88;5034488;28;20095;-74
2024/01/26 01:34:39;;;;;;;35.58;19.50;;;;;;;8.62;100.00;101382.00;5029026;28;20049;-73
2024/01/26 01:37:08;;;;;;;35.42;20.65;;;;;;;8.66;100.00;101373.06;5028675;28;20053;-73
2024/01/26 01:39:38;;;;;;;35.40;20.02;;;;;;;8.56;100.00;101350.44;5014504;28;20053;-72
2024/01/26 01:42:13;;;;;;;38.78;20.38;;;;;;;8.68;100.00;101372.13;5038657;28;20053;-74
2024/01/26 01:44:43;;;;;;;39.05;21.48;;;;;;;8.65;100.00;101372.25;5014532;28;20140;-74
2024/01/26 01:47:12;;;;;;;38.95;21.25;;;;;;;8.59;100.00;101359.16;5028507;28;20042;-73
2024/01/26 01:49:43;;;;;;;46.17;22.63;;;;;;;8.52;100.00;101354.91;5021077;28;20545;-72
2024/01/26 01:52:16;;;;;;;38.85;21.58;;;;;;;8.54;100.00;101346.97;5037012;28;20046;-74
2024/01/26 01:54:48;;;;;;;37.55;21.00;;;;;;;8.53;100.00;101347.88;5018534;28;20053;-74
2024/01/26 01:57:23;;;;;;;40.35;21.73;;;;;;;8.55;100.00;101360.13;5034298;28;20064;-73
2024/01/26 01:59:52;;;;;;;41.03;22.08;;;;;;;8.45;100.00;101345.44;5045526;28;20057;-74
2024/01/26 02:02:26;;;;;;;43.15;22.77;;;;;;;8.55;100.00;101364.53;5025897;28;20045;-73
2024/01/26 02:04:56;;;;;;;40.92;22.23;;;;;;;8.47;100.00;101346.25;5027132;28;20126;-72
2024/01/26 02:07:25;;;;;;;41.47;21.95;;;;;;;8.46;100.00;101347.16;5047228;28;20144;-72
2024/01/26 02:09:53;;;;;;;43.33;22.70;;;;;;;8.49;100.00;101355.03;5031622;28;20061;-73
2024/01/26 02:12:21;;;;;;;40.22;21.52;;;;;;;8.40;100.00;101332.31;5022646;28;20044;-73
2024/01/26 02:14:49;;;;;;;44.00;22.88;;;;;;;8.53;100.00;101355.78;5031270;28;20409;-72
2024/01/26 02:17:18;;;;;;;43.05;22.52;;;;;;;8.52;100.00;101343.50;5037031;28;20037;-73
2024/01/26 02:19:47;;;;;;;39.00;21.98;;;;;;;8.57;100.00;101342.50;5020784;28;20057;-72
2024/01/26 02:22:18;;;;;;;38.75;22.33;;;;;;;8.57;100.00;101331.06;5036334;28;20117;-72
2024/01/26 02:24:58;;;;;;;35.47;21.42;;;;;;;8.51;100.00;101321.50;5038173;28;20515;-73
2024/01/26 02:27:28;;;;;;;41.72;23.13;;;;;;;8.59;100.00;101332.75;5044577;28;20374;-74
2024/01/26 02:30:02;;;;;;;45.15;24.70;;;;;;;8.56;100.00;101327.56;5050242;28;20041;-73
2024/01/26 02:32:30;;;;;;;42.35;24.33;;;;;;;8.57;100.00;101334.56;5042624;28;20041;-72
2024/01/26 02:35:00;;;;;;;45.63;23.95;;;;;;;8.59;100.00;101335.41;5028894;28;20689;-74
2024/01/26 02:37:29;;;;;;;50.90;25.80;;;;;;;8.55;100.00;101322.31;5031037;28;20045;-73
2024/01/26 02:39:59;;;;;;;51.90;26.58;;;;;;;8.46;100.00;101318.13;5032916;28;20420;-73
2024/01/26 02:42:28;;;;;;;54.83;28.85;;;;;;;8.58;100.00;101335.44;5025121;28;20037;-73
2024/01/26 02:44:56;;;;;;;57.85;28.13;;;;;;;8.55;100.00;101330.22;5030932;28;20076;-72
2024/01/26 02:47:26;;;;;;;54.45;28.55;;;;;;;8.57;100.00;101331.06;5041438;28;20042;-73
2024/01/26 02:49:54;;;;;;;59.50;28.52;;;;;;;8.56;100.00;101327.56;5010026;28;20139;-74
2024/01/26 02:52:26;;;;;;;55.95;29.65;;;;;;;8.42;100.00;101306.78;5028214;28;20494;-72
2024/01/26 02:54:57;;;;;;;59.95;28.85;;;;;;;8.49;100.00;101318.06;5041775;28;20683;-72
2024/01/26 02:57:27;;;;;;;59.28;29.08;;;;;;;8.50;100.00;101324.22;5032319;28;20124;-71
2024/01/26 02:59:56;;;;;;;41.45;22.23;;;;;;;8.44;100.00;101309.38;5015626;28;20116;-73
2024/01/26 03:02:26;;;;;;;63.70;29.42;;;;;;;8.45;100.00;101311.13;5024283;28;20041;-73
2024/01/26 03:05:02;;;;;;;55.85;27.50;;;;;;;8.53;100.00;101313.56;5030816;28;20049;-72
2024/01/26 03:07:36;;;;;;;64.57;29.20;;;;;;;8.51;100.00;101305.66;5049588;28;20052;-73
2024/01/26 03:10:06;;;;;;;57.10;28.02;;;;;;;8.48;100.00;101310.19;5028722;28;20041;-73
2024/01/26 03:12:35;;;;;;;60.10;29.67;;;;;;;8.42;100.00;101305.91;5015021;28;20143;-73
2024/01/26 03:15:04;;;;;;;62.08;30.67;;;;;;;8.51;100.00;101320.63;5015683;28;20049;-72
2024/01/26 03:17:34;;;;;;;64.55;29.58;;;;;;;8.53;100.00;101324.13;5030404;28;20045;-73
2024/01/26 03:20:05;;;;;;;64.00;29.98;;;;;;;8.43;100.00;101299.72;5028520;28;20037;-73
2024/01/26 03:22:34;;;;;;;66.20;30.20;;;;;;;8.50;100.00;101319.78;5020121;28;20123;-73
2024/01/26 03:25:04;;;;;;;62.08;28.98;;;;;;;8.50;100.00;101311.00;5034735;28;20059;-73
2024/01/26 03:27:34;;;;;;;66.05;32.90;;;;;;;8.37;100.00;101289.28;5016059;28;20146;-72
2024/01/26 03:30:04;;;;;;;60.88;29.75;;;;;;;8.47;100.00;101308.44;5034344;28;20072;-72
2024/01/26 03:32:32;;;;;;;64.60;29.90;;;;;;;8.38;100.00;101291.03;5026574;28;20088;-74
2024/01/26 03:35:05;;;;;;;61.22;29.42;;;;;;;8.42;100.00;101300.63;5026765;28;20045;-73
2024/01/26 03:37:33;;;;;;;60.55;28.77;;;;;;;8.44;100.00;101304.97;5010586;28;20040;-73
2024/01/26 03:40:03;;;;;;;60.80;28.00;;;;;;;8.48;100.00;101311.03;5050894;28;20048;-73
2024/01/26 03:42:34;;;;;;;53.17;27.15;;;;;;;8.44;100.00;101297.03;5005154;28;20083;-74
2024/01/26 03:45:06;;;;;;;54.15;28.77;;;;;;;8.51;100.00;101295.09;5044454;28;20395;-72
2024/01/26 03:47:35;;;;;;;57.38;27.77;;;;;;;8.53;100.00;101300.34;5043775;28;20049;-73
2024/01/26 03:50:07;;;;;;;47.58;25.63;;;;;;;8.60;100.00;101309.88;5033073;28;20042;-73
2024/01/26 03:52:36;;;;;;;51.10;25.35;;;;;;;8.61;100.00;101309.84;5002811;28;20051;-72
2024/01/26 03:55:06;;;;;;;49.05;24.58;;;;;;;8.56;100.00;101287.09;5042687;28;20055;-73
2024/01/26 03:57:35;;;;;;;52.50;26.30;;;;;;;8.69;100.00;101305.22;5023741;28;20041;-73
2024/01/26 04:00:12;;;;;;;52.50;25.73;;;;;;;8.71;100.00;101329.81;5042642;28;20108;-72
2024/01/26 04:02:40;;;;;;;56.25;27.15;;;;;;;8.61;100.00;101309.84;5034822;28;20541;-73
2024/01/26 04:05:11;;;;;;;47.25;24.92;;;;;;;8.59;100.00;101293.16;5043275;28;20501;-74
2024/01/26 04:07:40;;;;;;;52.70;25.85;;;;;;;8.66;100.00;101307.94;5045127;28;20040;-73
2024/01/26 04:10:10;;;;;;;46.75;23.55;;;;;;;8.75;100.00;101314.78;5032130;28;20041;-72
2024/01/26 04:12:38;;;;;;;49.00;24.52;;;;;;;8.75;100.00;101315.66;5005962;28;20090;-72
2024/01/26 04:15:06;;;;;;;50.33;24.55;;;;;;;8.73;100.00;101320.09;5039744;28;20052;-74
2024/01/26 04:17:37;;;;;;;49.40;25.05;;;;;;;8.72;100.00;101330.69;5027415;28;20053;-73
2024/01/26 04:20:06;;;;;;;49.88;24.95;;;;;;;8.71;100.00;101326.31;5023160;28;20421;-72
2024/01/26 04:22:36;;;;;;;47.30;24.75;;;;;;;8.63;100.00;101320.38;5036571;28;20069;-73
2024/01/26 04:25:08;;;;;;;52.08;24.85;;;;;;;8.69;100.00;101331.63;5029528;28;20395;-73
2024/01/26 04:27:36;;;;;;;48.72;24.90;;;;;;;8.68;100.00;101329.91;5045879;28;20049;-72
2024/01/26 04:30:06;;;;;;;47.65;24.80;;;;;;;8.63;100.00;101315.97;5029870;28;20099;-72
2024/01/26 04:32:37;;;;;;;51.97;25.13;;;;;;;8.66;100.00;101325.53;5030099;28;20152;-74
2024/01/26 04:35:08;;;;;;;48.17;25.77;;;;;;;8.62;100.00;101319.50;5028072;28;20043;-73
2024/01/26 04:37:37;;;;;;;49.55;24.58;;;;;;;8.67;100.00;101322.88;5035617;28;20099;-74
2024/01/26 04:40:10;;;;;;;50.67;24.30;;;;;;;8.56;100.00;101303.78;5041257;28;20037;-74
2024/01/26 04:42:40;;;;;;;49.40;24.20;;;;;;;8.50;100.00;101290.72;5027964;28;20049;-74
2024/01/26 04:45:10;;;;;;;48.42;24.25;;;;;;;8.67;100.00;101314.94;5045616;28;20377;-74
2024/01/26 04:47:42;;;;;;;45.45;22.73;;;;;;;8.63;100.00;101304.53;5044546;28;20046;-74
2024/01/26 04:50:11;;;;;;;40.72;21.17;;;;;;;8.71;100.00;101308.69;5027924;28;20046;-74
2024/01/26 04:52:41;;;;;;;42.58;22.52;;;;;;;8.69;100.00;101294.66;5022349;28;20066;-73
2024/01/26 04:55:12;;;;;;;40.70;22.08;;;;;;;8.83;100.00;101296.94;5009465;28;20049;-74
2024/01/26 04:57:40;;;;;;;38.67;20.75;;;;;;;8.90;100.00;101287.09;5030347;28;20041;-72
2024/01/26 05:00:12;;;;;;;40.70;21.50;;;;;;;8.97;100.00;101288.69;5025313;28;20049;-72
2024/01/26 05:02:42;;;;;;;40.85;21.23;;;;;;;9.00;100.00;101291.25;5023322;28;20045;-72
2024/01/26 05:05:13;;;;;;;32.97;19.93;;;;;;;8.99;100.00;101281.56;5041070;28;20410;-72
2024/01/26 05:07:42;;;;;;;35.05;20.05;;;;;;;9.07;100.00;101282.25;5050554;28;20063;-73
2024/01/26 05:10:11;;;;;;;33.05;19.60;;;;;;;9.07;100.00;101277.84;5020809;28;20442;-73
2024/01/26 05:12:42;;;;;;;34.22;19.85;;;;;;;9.10;100.00;101266.31;5022999;28;20060;-72
2024/01/26 05:15:15;;;;;;;31.25;18.77;;;;;;;9.07;100.00;101261.13;5025275;28;20052;-73
2024/01/26 05:17:45;;;;;;;31.80;19.15;;;;;;;9.23;100.00;101280.06;5042906;28;20060;-73
2024/01/26 05:20:13;;;;;;;31.50;19.25;;;;;;;9.25;100.00;101276.47;5028111;28;20046;-73
2024/01/26 05:22:45;;;;;;;30.58;18.73;;;;;;;9.19;100.00;101263.41;5009999;28;20056;-77
2024/01/26 05:25:15;;;;;;;31.10;18.88;;;;;;;9.16;100.00;101258.22;5035979;28;20046;-75
2024/01/26 05:27:44;;;;;;;29.38;17.60;;;;;;;9.27;100.00;101277.31;5049542;28;20041;-73
2024/01/26 05:30:13;;;;;;;30.00;17.63;;;;;;;9.25;100.00;101257.13;5035950;28;20076;-73
2024/01/26 05:32:43;;;;;;;26.00;17.20;;;;;;;9.42;100.00;101271.59;5038461;28;20053;-74
2024/01/26 05:35:18;;;;;;;25.48;16.92;;;;;;;9.39;100.00;101261.09;5037577;28;20056;-72
2024/01/26 05:37:46;;;;;;;25.50;17.13;;;;;;;9.34;100.00;101252.41;5039856;28;20105;-74
2024/01/26 05:40:16;;;;;;;27.75;18.08;;;;;;;9.35;100.00;101259.44;5031570;28;20091;-74
2024/01/26 05:42:49;;;;;;;27.33;17.75;;;;;;;9.37;100.00;101268.19;5034038;28;20077;-74
2024/01/26 05:45:18;;;;;;;28.98;18.05;;;;;;;9.39;100.00;101274.31;5047337;28;20045;-74
2024/01/26 05:47:52;;;;;;;24.55;17.27;;;;;;;9.39;100.00;101269.03;5033220;28;20053;-75
2024/01/26 05:50:22;;;;;;;23.15;16.30;;;;;;;9.40;100.00;101272.53;5036812;28;20109;-73
2024/01/26 05:52:52;;;;;;;;;;;;;;;9.44;100.00;101282.97;5036299;28;20060;-74
2024/01/26 05:55:23;;;;;;;27.35;16.77;;;;;;;9.43;100.00;101278.63;5032735;28;19979;-74
2024/01/26 05:57:52;;;;;;;22.38;15.32;;;;;;;9.37;100.00;101278.78;5018816;28;20111;-72
2024/01/26 06:00:21;;;;;;;27.30;17.38;;;;;;;9.35;100.00;101275.31;5023652;28;20037;-73
2024/01/26 06:02:53;;;;;;;24.67;15.73;;;;;;;9.31;100.00;101268.34;5027119;28;20133;-74
2024/01/26 06:05:23;;;;;;;23.77;16.23;;;;;;;9.37;100.00;101267.34;5029794;28;20064;-75
2024/01/26 06:07:51;;;;;;;23.55;15.93;;;;;;;9.37;100.00;101259.41;5023576;28;20076;-75
2024/01/26 06:10:23;;;;;;;25.55;15.73;;;;;;;9.33;100.00;101252.47;5026448;28;20041;-74
2024/01/26 06:12:52;;;;;;;20.67;14.82;;;;;;;9.38;100.00;101262.00;5026616;28;20067;-74
2024/01/26 06:15:26;;;;;;;25.25;15.38;;;;;;;9.34;100.00;101251.56;5046387;28;20087;-74
2024/01/26 06:17:53;;;;;;;;;;;;;;;9.42;100.00;101257.50;5035859;28;20080;-74
2024/01/26 06:20:23;;;;;;;20.35;14.35;;;;;;;9.41;100.00;101261.94;5040898;28;19951;-74
2024/01/26 06:22:51;;;;;;;19.55;13.50;;;;;;;9.34;100.00;101265.63;5037619;28;20048;-74
2024/01/26 06:25:19;;;;;;;18.95;13.50;;;;;;;9.36;100.00;101265.59;5041385;28;20045;-74
2024/01/26 06:27:49;;;;;;;19.70;13.40;;;;;;;9.39;100.00;101265.53;5033509;28;20586;-73
2024/01/26 06:30:18;;;;;;;19.80;13.55;;;;;;;9.26;100.00;101257.06;5043972;28;20041;-74
2024/01/26 06:32:46;;;;;;;22.25;13.25;;;;;;;9.26;100.00;101259.72;5049606;28;20095;-74
2024/01/26 06:35:16;;;;;;;17.95;12.85;;;;;;;9.17;100.00;101249.38;5030190;28;20045;-73
2024/01/26 06:37:49;;;;;;;17.95;12.57;;;;;;;9.23;100.00;101248.34;5035294;28;20558;-75
2024/01/26 06:40:17;;;;;;;16.75;11.98;;;;;;;9.24;100.00;101250.97;5045669;28;20041;-74
2024/01/26 06:42:45;;;;;;;16.17;11.75;;;;;;;9.17;100.00;101241.44;5033381;28;20526;-75
2024/01/26 06:45:16;;;;;;;16.35;11.07;;;;;;;9.22;100.00;101242.19;5031779;28;20087;-73
2024/01/26 06:47:45;;;;;;;15.90;10.57;;;;;;;9.03;100.00;101225.97;5038045;28;20049;-73
2024/01/26 06:50:14;;;;;;;15.23;10.20;;;;;;;9.20;100.00;101238.72;5032426;28;20041;-74
2024/01/26 06:52:42;;;;;;;11.95;9.32;;;;;;;9.27;100.00;101245.59;5044833;28;20040;-74
2024/01/26 06:55:14;;;;;;;12.15;8.95;;;;;;;9.32;100.00;101240.16;5027984;28;20037;-75
2024/01/26 06:57:43;;;;;;;13.43;8.82;;;;;;;9.36;100.00;101244.44;5031427;28;20054;-74
2024/01/26 07:00:13;;;;;;;12.38;8.38;;;;;;;9.29;100.00;101233.16;5030608;28;20065;-74
2024/01/26 07:02:42;;;;;;;10.25;8.20;;;;;;;9.39;100.00;101237.31;5028143;28;20046;-74
2024/01/26 07:05:14;;;;;;;10.98;7.53;;;;;;;9.40;100.00;101230.25;5038819;28;20549;-75
2024/01/26 07:07:42;;;;;;;10.18;7.93;;;;;;;9.41;100.00;101221.41;5038537;28;20096;-75
2024/01/26 07:10:14;;;;;;;9.88;6.30;;;;;;;9.56;100.00;101252.69;5031608;28;20056;-74
2024/01/26 07:12:42;;;;;;;8.70;6.20;;;;;;;9.56;100.00;101241.25;5029594;28;20042;-74
2024/01/26 07:15:12;;;;;;;9.85;6.45;;;;;;;9.59;100.00;101241.16;5027079;28;20398;-74
2024/01/26 07:17:40;;;;;;;10.18;7.10;;;;;;;9.60;100.00;101246.38;5047936;28;20079;-75
2024/01/26 07:20:10;;;;;;;9.15;6.10;;;;;;;9.57;100.00;101241.19;5052796;28;20059;-74
2024/01/26 07:22:38;;;;;;;8.23;5.90;;;;;;;9.54;100.00;101233.34;5031509;28;20056;-73
2024/01/26 07:25:18;;;;;;;9.80;6.38;;;;;;;9.55;100.00;101235.09;5026954;28;20037;-73
2024/01/26 07:27:48;;;;;;;9.77;5.90;;;;;;;9.60;100.00;101241.09;5038226;28;20109;-74
2024/01/26 07:30:17;;;;;;;7.43;5.28;;;;;;;9.63;100.00;101237.50;5038363;28;20060;-74
2024/01/26 07:32:48;;;;;;;9.25;6.07;;;;;;;9.66;100.00;101232.13;5039942;28;20045;-73
2024/01/26 07:35:17;;;;;;;8.43;5.55;;;;;;;9.65;100.00;101225.09;5024825;28;20041;-73
2024/01/26 07:37:46;;;;;;;10.02;6.15;;;;;;;9.72;100.00;101226.66;5053666;28;20203;-73
2024/01/26 07:40:20;;;;;;;7.20;5.50;;;;;;;9.70;100.00;101207.31;5032414;28;20034;-73
2024/01/26 07:42:53;;;;;;;8.15;5.45;;;;;;;9.77;100.00;101198.25;5047661;28;20048;-73
2024/01/26 07:45:21;;;;;;;7.80;5.68;;;;;;;9.78;100.00;101187.63;5005730;28;20052;-73
2024/01/26 07:47:52;;;;;;;5.93;4.65;;;;;;;9.79;100.00;101175.28;5036561;28;20068;-73
2024/01/26 07:50:21;;;;;;;7.00;5.53;;;;;;;9.87;100.00;101183.84;5043738;28;20045;-73
2024/01/26 07:52:52;;;;;;;8.50;5.72;;;;;;;9.90;100.00;101180.25;5046942;28;20068;-75
2024/01/26 07:55:31;;;;;;;9.68;5.57;;;;;;;9.91;100.00;101182.84;5047157;28;20506;-74
2024/01/26 07:58:02;;;;;;;10.05;5.63;;;;;;;9.90;100.00;101188.19;5000511;28;20049;-74
2024/01/26 08:00:31;;;;;;;8.55;5.22;;;;;;;9.86;100.00;101192.69;5043381;28;20105;-77
2024/01/26 08:03:00;;;;;;;7.10;5.60;;;;;;;9.83;100.00;101192.78;5045124;28;20049;-75
2024/01/26 08:05:29;;;;;;;7.25;5.55;;;;;;;9.86;100.00;101198.00;5036808;28;20215;-76
2024/01/26 08:08:00;;;;;;;7.00;5.60;;;;;;;9.80;100.00;101198.19;5033336;28;20059;-77
2024/01/26 08:10:33;;;;;;;8.00;5.70;;;;;;;9.78;100.00;101179.69;5003212;28;20060;-75
2024/01/26 08:13:04;;;;;;;7.30;5.75;;;;;;;9.78;100.00;101169.13;5024962;28;20053;-76
2024/01/26 08:15:32;;;;;;;6.72;5.43;;;;;;;9.83;100.00;101167.22;5026054;28;20516;-77
2024/01/26 08:18:03;;;;;;;8.10;6.18;;;;;;;9.72;100.00;101142.03;5031927;28;20057;-76
2024/01/26 08:20:34;;;;;;;7.55;5.65;;;;;;;9.85;100.00;101168.03;5035603;28;20053;-74
2024/01/26 08:23:05;;;;;;;9.23;5.93;;;;;;;9.78;100.00;101169.13;5025969;28;20510;-74
2024/01/26 08:25:35;;;;;;;11.55;6.32;;;;;;;9.84;100.00;101157.50;5006855;28;20056;-74
2024/01/26 08:28:04;;;;;;;;;;;;;;;9.90;100.00;101146.72;5039590;28;20096;-75
2024/01/26 08:30:33;;;;;;;8.15;5.43;;;;;;;9.94;100.00;101150.97;5031907;28;20684;-76
2024/01/26 08:33:01;;;;;;;8.07;5.57;;;;;;;9.89;100.00;101128.25;5034139;28;20049;-75
2024/01/26 08:35:32;;;;;;;7.07;5.30;;;;;;;10.00;100.00;101142.00;5014149;28;20049;-76
2024/01/26 08:38:00;;;;;;;7.22;5.40;;;;;;;9.97;100.00;101142.94;5041010;28;20468;-77
2024/01/26 08:40:31;;;;;;;6.50;5.47;;;;;;;10.00;100.00;101131.41;5035980;28;20101;-76
2024/01/26 08:43:02;;;;;;;6.28;4.90;;;;;;;9.91;100.00;101121.13;5013956;28;20045;-77
2024/01/26 08:45:34;;;;;;;8.68;5.30;;;;;;;10.00;100.00;101113.75;5004795;28;20056;-77
2024/01/26 08:48:05;;;;;;;6.90;5.35;;;;;;;9.97;100.00;101127.06;5054335;28;20050;-76
2024/01/26 08:50:35;;;;;;;11.50;6.88;;;;;;;9.87;100.00;101119.50;5045586;28;20048;-76
2024/01/26 08:53:06;;;;;;;7.78;5.70;;;;;;;9.95;100.00;101126.25;5032024;28;20046;-75
2024/01/26 08:55:35;;;;;;;9.45;5.97;;;;;;;9.98;100.00;101110.28;5035587;28;20052;-75
2024/01/26 08:58:07;;;;;;;6.75;5.40;;;;;;;9.96;100.00;101120.06;5056703;28;20049;-74
2024/01/26 09:00:40;;;;;;;7.82;5.50;;;;;;;9.93;100.00;101122.78;5035532;28;20140;-72
2024/01/26 09:03:09;;;;;;;8.88;6.18;;;;;;;10.00;100.00;101132.28;5033069;28;20444;-74
2024/01/26 09:05:39;;;;;;;9.77;6.38;;;;;;;10.04;100.00;101125.97;5023079;28;20046;-74
2024/01/26 09:08:11;;;;;;;8.77;6.22;;;;;;;10.08;100.00;101135.50;5035640;28;20044;-75
2024/01/26 09:10:42;;;;;;;8.63;5.90;;;;;;;10.02;100.00;101125.16;5028450;28;20057;-74
2024/01/26 09:13:12;;;;;;;9.18;6.90;;;;;;;9.96;100.00;101121.84;5031100;28;20041;-75
2024/01/26 09:15:43;;;;;;;11.73;7.65;;;;;;;9.86;100.00;101118.63;5029835;28;20091;-76
2024/01/26 09:18:11;;;;;;;12.18;8.10;;;;;;;9.76;100.00;101114.53;5049091;28;20061;-76
2024/01/26 09:20:44;;;;;;;11.15;8.30;;;;;;;9.68;100.00;101098.94;5040046;28;20037;-75
2024/01/26 09:23:13;;;;;;;10.57;8.07;;;;;;;9.66;100.00;101091.94;5012336;28;20075;-74
2024/01/26 09:25:45;;;;;;;11.23;7.75;;;;;;;9.59;100.00;101079.88;5044698;28;20207;-74
2024/01/26 09:28:17;;;;;;;15.05;8.93;;;;;;;9.58;100.00;101081.63;5035725;28;20596;-75
2024/01/26 09:30:48;;;;;;;15.32;9.27;;;;;;;9.56;100.00;101080.81;5018473;28;20046;-74
2024/01/26 09:33:18;;;;;;;14.60;8.95;;;;;;;9.51;100.00;101090.66;5045337;28;20073;-74
2024/01/26 09:35:54;;;;;;;13.82;8.68;;;;;;;9.40;100.00;101079.56;5038908;28;20064;-74
2024/01/26 09:38:25;;;;;;;15.55;9.82;;;;;;;9.41;100.00;101079.53;5027147;28;20597;-73
2024/01/26 09:40:58;;;;;;;15.70;10.20;;;;;;;9.42;100.00;101085.69;5042355;28;20037;-73
2024/01/26 09:43:29;;;;;;;13.98;9.05;;;;;;;9.37;100.00;101091.09;5033939;28;20053;-73
2024/01/26 09:46:00;;;;;;;16.60;9.77;;;;;;;9.28;100.00;101078.19;5027330;28;20041;-74
2024/01/26 09:48:30;;;;;;;15.00;9.45;;;;;;;9.32;100.00;101098.28;5035482;28;20597;-76
2024/01/26 09:51:02;;;;;;;17.02;9.55;;;;;;;9.37;100.00;101099.03;5048268;28;20061;-76
2024/01/26 09:53:33;;;;;;;12.20;8.43;;;;;;;9.34;100.00;101091.19;5026532;28;20084;-74
2024/01/26 09:56:04;;;;;;;13.60;8.50;;;;;;;9.38;100.00;101095.47;5028437;28;20551;-75
2024/01/26 09:58:36;;;;;;;12.68;9.00;;;;;;;9.37;100.00;101104.31;5053726;28;20103;-76
2024/01/26 10:01:09;;;;;;;13.85;8.65;;;;;;;9.36;100.00;101107.88;5027137;28;20072;-77
2024/01/26 10:03:38;;;;;;;12.63;9.00;;;;;;;9.33;100.00;101093.88;5035059;28;20052;-76
2024/01/26 10:06:09;;;;;;;16.38;8.82;;;;;;;9.31;100.00;101096.56;5026446;28;20102;-75
2024/01/26 10:08:39;;;;;;;11.95;8.48;;;;;;;9.28;100.00;101088.75;5041848;28;20049;-76
2024/01/26 10:11:07;;;;;;;14.50;8.60;;;;;;;9.26;100.00;101085.28;5050548;28;20050;-75
2024/01/26 10:13:37;;;;;;;13.00;8.75;;;;;;;9.30;100.00;101093.97;5040724;28;20136;-76
2024/01/26 10:16:07;;;;;;;;;;;;;;;9.31;100.00;101091.28;5051545;28;20041;-75
2024/01/26 10:18:40;;;;;;;11.48;8.02;;;;;;;9.29;100.00;101086.94;5038911;28;19947;-76
2024/01/26 10:21:11;;;;;;;14.55;8.23;;;;;;;9.30;100.00;101080.75;5033830;28;20080;-76
2024/01/26 10:23:41;;;;;;;11.75;8.35;;;;;;;9.27;100.00;101065.00;5018151;28;20045;-73
2024/01/26 10:26:14;;;;;;;13.27;8.13;;;;;;;9.31;100.00;101062.19;5022863;28;20038;-73
2024/01/26 10:28:56;;;;;;;13.50;8.57;;;;;;;9.26;100.00;101050.94;5034256;28;20685;-72
2024/01/26 10:31:26;;;;;;;13.80;8.27;;;;;;;9.30;100.00;101060.47;5034634;28;20068;-75
2024/01/26 10:33:56;;;;;;;12.38;8.55;;;;;;;9.32;100.00;101071.88;5047336;28;20107;-73
2024/01/26 10:36:40;;;;;;;14.48;8.68;;;;;;;9.29;100.00;101064.03;5025760;28;20093;-72
2024/01/26 10:39:21;;;;;;;12.38;8.10;;;;;;;9.29;100.00;101069.31;5040172;28;20124;-76
2024/01/26 10:41:54;;;;;;;11.70;7.80;;;;;;;9.35;100.00;101068.25;5035294;28;20052;-74
2024/01/26 10:44:26;;;;;;;12.55;8.35;;;;;;;9.36;100.00;101056.78;5051353;28;20351;-73
2024/01/26 10:46:59;;;;;;;13.48;8.23;;;;;;;9.40;100.00;101054.00;5053366;28;20056;-74
2024/01/26 10:49:30;;;;;;;11.02;8.23;;;;;;;9.44;100.00;101046.84;5035375;28;20034;-74
2024/01/26 10:52:02;;;;;;;12.27;8.30;;;;;;;9.48;100.00;101036.09;5032976;28;20042;-75
2024/01/26 10:54:33;;;;;;;12.77;8.68;;;;;;;9.45;100.00;101027.41;5032712;28;20129;-74
2024/01/26 10:57:02;;;;;;;10.85;8.23;;;;;;;9.48;100.00;101028.16;5048208;28;20038;-75
2024/01/26 10:59:32;;;;;;;14.15;8.10;;;;;;;9.56;100.00;101041.16;5043004;28;20079;-74
2024/01/26 11:02:01;;;;;;;11.95;7.97;;;;;;;9.57;100.00;101042.03;5012784;28;20052;-72
2024/01/26 11:04:34;;;;;;;11.18;7.90;;;;;;;9.53;100.00;101041.25;5034134;28;20050;-72
2024/01/26 11:07:05;;;;;;;12.50;8.10;;;;;;;9.54;100.00;101036.81;5040712;28;20044;-74
2024/01/26 11:09:38;;;;;;;13.25;8.73;;;;;;;9.53;100.00;101024.53;5019362;28;20053;-73
2024/01/26 11:12:19;;;;;;;12.25;8.68;;;;;;;9.57;100.00;101028.81;5035030;28;20053;-73
2024/01/26 11:15:03;;;;;;;;;;;;;;;9.57;100.00;101026.16;5028452;28;20056;-70
2024/01/26 11:17:44;;;;;;;13.45;9.63;;;;;;;9.59;100.00;101013.75;5052575;28;19935;-74
2024/01/26 11:20:18;;;;;;;11.10;8.48;;;;;;;9.59;100.00;101013.75;5035642;28;20041;-75
2024/01/26 11:22:47;;;;;;;12.35;8.25;;;;;;;9.63;100.00;101015.38;5040484;28;20115;-72
2024/01/26 11:25:22;;;;;;;13.25;8.15;;;;;;;9.65;100.00;101008.25;5053119;28;20425;-75
2024/01/26 11:27:59;;;;;;;13.68;9.23;;;;;;;9.72;100.00;101012.44;5024755;28;20088;-75
2024/01/26 11:30:29;;;;;;;17.35;9.63;;;;;;;9.79;100.00;101003.34;5038816;28;20042;-76
2024/01/26 11:33:17;;;;;;;13.10;8.35;;;;;;;9.81;100.00;101005.03;5043816;28;20053;-75